EUG - Mahlon Sweet Fld

Pirep is a free, collaborative database of all public and private airports located within the United States. All pilots are welcome to contribute, edit, and improve any airport they have local knowledge about, no registration required.
Uploaded photos will be licensed under a CC BY-SA 4.0 license. Please only upload photos you have the rights to use.
Tags
Public
METAR / TAF
Car Rental
Museum
Edit Tags
Food
Camping
Lodging
Bicycles
Swimming
Golfing
Fishing
Hot Springs
Flying Clubs
Airpark
Upcoming Events
No upcoming events. Is anything happening here soon?
*
*
*

Where exactly on/near the airport is this event taking place?

Is there a webpage with more information for this event?

Who should be contacted for more information?

What is this event all about?

Repeat every
Description
Last updated: 2024-04-30 19:46:56 PDT
Transient Parking
Fuel Location
Landing & Tie-down Fees
Crew Car Availability
Flying Clubs
WiFi Access
Airport Statistics
Location: Eugene, OR
Elevation: 373ft
Sectional: Klamath Falls
Activation date: Feb 1943
Fuel: 100LL, A (prices)
Runway 16R/34L: 8,009ft
Runway 16L/34R: 6,000ft
Access: Open to the public
Current Weather — VFR
  • Weather data is strictly informational and not for flight planning purposes.
  • METAR
    2024-05-30 00:54:00 PDT
    Ceiling Wind Temperature Dewpoint Weather Visbility
    Sky clear 320° @ 5kt 46°F 42°F N/A 10SM
    Raw: KEUG 300754Z AUTO 32005KT 10SM CLR 08/06 A3039 RMK AO2 SLP291 T00780056 401940078
  • TAF
    2024-05-29 23:00:00 PDT – 2024-05-30 00:00:00 PDT
    Ceiling Wind Weather Visbility
    6,000ft Variable N/A 6SM
    Clouds: Broken @ 6,000ft
    Raw: KEUG 300520Z 3006/3106 VRB05KT P6SM BKN060 FM300700 36007KT P6SM SCT250 FM301500 01012G22KT P6SM FEW250
  • TAF
    2024-05-30 00:00:00 PDT – 2024-05-30 08:00:00 PDT
    Ceiling Wind Weather Visbility
    Sky clear 360° @ 7kt N/A 6SM
    Clouds: Scattered @ 25,000ft
    Raw: KEUG 300520Z 3006/3106 VRB05KT P6SM BKN060 FM300700 36007KT P6SM SCT250 FM301500 01012G22KT P6SM FEW250
  • TAF
    2024-05-30 08:00:00 PDT – 2024-05-30 23:00:00 PDT
    Ceiling Wind Weather Visbility
    Sky clear 10° @ 12kt, gusts 22kt N/A 6SM
    Clouds: Few @ 25,000ft
    Raw: KEUG 300520Z 3006/3106 VRB05KT P6SM BKN060 FM300700 36007KT P6SM SCT250 FM301500 01012G22KT P6SM FEW250
Click/tap to add an annotation marker to the map
Airport Webcams
No webcams added yet.
Direct links to live image URLs will be displayed inline on this page. URLs to separate webpages will be linked to.
URL:
Direct links to live image URLs will be displayed inline on this page. URLs to separate webpages will be linked to.
URL:
Remarks
  • Ppr for unsked acr oprns with more than 30 pax seats call 541-682-5430. arff avbl 24 hrs a day, 7 days a week, 365 days a year. index d avbl with 24 hr ppr.
  • Migratory waterfowl & otr birds on & invof arpt.
  • Twys h & k unavbl to acft 21000 lbs sw & 40000 lbs dw gwt.
  • Trml apron clsd to acft excp skedd acrs & flts with prior pmsn.
  • Hels lndg and departing avoid overflying the airline psgr trml and ramp lctd e of ry 16r/34l.
Comments
Leave a comment What was your experience like at this airport?